ADDS METAR Data INFO
IDs: Format: Raw Decoded Include TAF

Data at: 2001 UTC 19 Oct 2017

KFNL 191956Z AUTO 13003KT 10SM CLR 20/M02 A2997 RMK AO2 SLP115 T02001017
KFNL 191856Z AUTO 00000KT 10SM CLR 19/M01 A3001 RMK AO2 SLP127 T01941006
KFNL 191756Z AUTO 16004KT 10SM CLR 18/01 A3004 RMK AO2 SLP140 T01780011 10178 20039 58012
KFNL 191656Z AUTO 15003KT 10SM CLR 15/01 A3006 RMK AO2 SLP150 T01500006
KFNL 191556Z AUTO 00000KT 10SM CLR 12/M02 A3007 RMK AO2 SLP156 T01171022
KFNL 191456Z AUTO 35003KT 10SM CLR 08/00 A3008 RMK AO2 SLP160 T00830000 55003
KFNL 191356Z AUTO 31003KT 10SM CLR 04/00 A3008 RMK AO2 SLP161 T00440000
KFNL 191256Z AUTO 00000KT 10SM CLR 05/M01 A3008 RMK AO2 SLP157 T00501006
KFNL 191156Z AUTO 00000KT 10SM CLR 05/M01 A3009 RMK AO2 SLP156 T00501011 10078 20028 55003
KFNL 191056Z AUTO 00000KT 10SM CLR 04/M03 A3008 RMK AO2 SLP150 T00391028
KFNL 190956Z AUTO 02003KT 10SM CLR 06/M03 A3008 RMK AO2 SLP145 T00561028
KFNL 190856Z AUTO 35003KT 10SM CLR 03/M02 A3010 RMK AO2 SLP156 T00331022 56006
KFNL 190756Z AUTO 01006KT 10SM CLR 06/M02 A3011 RMK AO2 SLP155 T00561022
KFNL 190656Z AUTO 02008KT 10SM CLR 07/M01 A3011 RMK AO2 SLP155 T00721011 402560056
KFNL 190556Z AUTO 36006KT 10SM CLR 07/M01 A3012 RMK AO2 SLP161 T00721011 10206 20067 58006
KFNL 190456Z AUTO 01006KT 10SM CLR 09/M02 A3013 RMK AO2 SLP169 T00891017
KFNL 190356Z AUTO 04008KT 10SM CLR 12/M03 A3013 RMK AO2 SLP170 T01171028
KFNL 190256Z AUTO 13005KT 10SM CLR 13/M04 A3014 RMK AO2 SLP174 T01331044 51010
KFNL 190156Z AUTO 10010KT 10SM CLR 17/M04 A3014 RMK AO2 SLP168 T01671039
KFNL 190056Z AUTO 13006KT 10SM CLR 18/M07 A3011 RMK AO2 SLP164 T01831067
KFNL 182356Z AUTO 14005KT 10SM CLR 21/M04 A3011 RMK AO2 SLP158 T02111039 10256 20211 53004
KFNL 182256Z AUTO 15008KT 10SM CLR 24/M07 A3010 RMK AO2 SLP149 T02441067
KFNL 182156Z AUTO 15009KT 10SM CLR 26/M09 A3009 RMK AO2 SLP143 T02561089
KFNL 182056Z AUTO 17009KT 10SM CLR 26/M06 A3009 RMK AO2 SLP149 T02561061 56020
KFNL 181956Z AUTO 15009KT 10SM CLR 25/M05 A3011 RMK AO2 SLP151 T02501050
KFNL 181856Z AUTO 18010KT 10SM CLR 24/M06 A3014 RMK AO2 SLP163 T02391061
KFNL 181756Z AUTO 20008KT 10SM CLR 22/M03 A3016 RMK AO2 SLP167 T02221028 10222 20072 50005
KFNL 181656Z AUTO 26007KT 10SM CLR 19/M07 A3016 RMK AO2 SLP179 T01891067
KFNL 181556Z AUTO 28003KT 10SM CLR 16/M02 A3016 RMK AO2 SLP181 T01561017
KFNL 181456Z AUTO VRB03KT 10SM CLR 13/M02 A3014 RMK AO2 SLP174 T01331022 53026
KFNL 181356Z AUTO 00000KT 10SM CLR 12/M05 A3012 RMK AO2 SLP160 T01221050
KFNL 181256Z AUTO 16003KT 10SM CLR 08/M01 A3007 RMK AO2 SLP146 T00781011
KFNL 181156Z AUTO 23003KT 10SM CLR 07/00 A3005 RMK AO2 SLP142 T00720000 10117 20056 53002
KFNL 181056Z AUTO 03005G14KT 10SM CLR 08/01 A3005 RMK AO2 SLP133 T00780006
KFNL 180956Z AUTO 00000KT 10SM CLR 08/00 A3004 RMK AO2 SLP128 T00830000
KFNL 180856Z AUTO 20009KT 10SM CLR 06/02 A3005 RMK AO2 SLP135 T00560022 55001